sensor_id;sensor_type;location;lat;lon;timestamp;pressure;altitude;pressure_sealevel;temperature;humidity
32109;BME280;18624;50.042;8.436;2022-12-01T00:01:05;101206.41;;;6.42;100.00
32109;BME280;18624;50.042;8.436;2022-12-01T00:03:32;101209.88;;;6.39;100.00
32109;BME280;18624;50.042;8.436;2022-12-01T00:08:26;101202.84;;;6.31;100.00
32109;BME280;18624;50.042;8.436;2022-12-01T00:10:55;101209.41;;;6.23;100.00
32109;BME280;18624;50.042;8.436;2022-12-01T00:13:21;101205.44;;;6.13;100.00
32109;BME280;18624;50.042;8.436;2022-12-01T00:15:48;101217.06;;;6.06;100.00
32109;BME280;18624;50.042;8.436;2022-12-01T00:18:14;101219.72;;;5.99;100.00
32109;BME280;18624;50.042;8.436;2022-12-01T00:20:41;101216.94;;;5.92;100.00
32109;BME280;18624;50.042;8.436;2022-12-01T00:23:07;101216.47;;;5.87;100.00
32109;BME280;18624;50.042;8.436;2022-12-01T00:25:33;101223.03;;;5.82;100.00
32109;BME280;18624;50.042;8.436;2022-12-01T00:28:00;101220.28;;;5.78;100.00
32109;BME280;18624;50.042;8.436;2022-12-01T00:30:26;101224.53;;;5.76;100.00
32109;BME280;18624;50.042;8.436;2022-12-01T00:32:53;101222.56;;;5.73;100.00
32109;BME280;18624;50.042;8.436;2022-12-01T00:35:19;101221.34;;;5.67;100.00
32109;BME280;18624;50.042;8.436;2022-12-01T00:37:45;101217.78;;;5.63;100.00
32109;BME280;18624;50.042;8.436;2022-12-01T00:40:12;101232.63;;;5.69;100.00
32109;BME280;18624;50.042;8.436;2022-12-01T00:42:39;101222.91;;;5.68;100.00
32109;BME280;18624;50.042;8.436;2022-12-01T00:45:06;101216.25;;;5.62;100.00
32109;BME280;18624;50.042;8.436;2022-12-01T00:47:32;101232.97;;;5.64;100.00
32109;BME280;18624;50.042;8.436;2022-12-01T00:49:59;101223.22;;;5.59;100.00
32109;BME280;18624;50.042;8.436;2022-12-01T00:52:25;101233.63;;;5.53;100.00
32109;BME280;18624;50.042;8.436;2022-12-01T00:54:52;101232.03;;;5.49;100.00
32109;BME280;18624;50.042;8.436;2022-12-01T00:57:18;101237.81;;;5.44;100.00
32109;BME280;18624;50.042;8.436;2022-12-01T00:59:45;101237.75;;;5.40;100.00
32109;BME280;18624;50.042;8.436;2022-12-01T01:02:12;101231.84;;;5.31;100.00
32109;BME280;18624;50.042;8.436;2022-12-01T01:04:39;101233.03;;;5.33;100.00
32109;BME280;18624;50.042;8.436;2022-12-01T01:07:05;101231.09;;;5.34;100.00
32109;BME280;18624;50.042;8.436;2022-12-01T01:09:31;101237.28;;;5.31;100.00
32109;BME280;18624;50.042;8.436;2022-12-01T01:11:58;101235.66;;;5.23;100.00
32109;BME280;18624;50.042;8.436;2022-12-01T01:14:25;101243.91;;;5.33;100.00
32109;BME280;18624;50.042;8.436;2022-12-01T01:16:52;101250.50;;;5.32;100.00
32109;BME280;18624;50.042;8.436;2022-12-01T01:19:20;101252.03;;;5.30;100.00
32109;BME280;18624;50.042;8.436;2022-12-01T01:21:47;101250.47;;;5.29;100.00
32109;BME280;18624;50.042;8.436;2022-12-01T01:24:13;101251.28;;;5.33;100.00
32109;BME280;18624;50.042;8.436;2022-12-01T01:26:40;101263.72;;;5.34;100.00
32109;BME280;18624;50.042;8.436;2022-12-01T01:29:07;101261.00;;;5.34;100.00
32109;BME280;18624;50.042;8.436;2022-12-01T01:31:34;101264.09;;;5.32;100.00
32109;BME280;18624;50.042;8.436;2022-12-01T01:34:00;101263.72;;;5.34;100.00
32109;BME280;18624;50.042;8.436;2022-12-01T01:36:27;101263.72;;;5.34;100.00
32109;BME280;18624;50.042;8.436;2022-12-01T01:38:54;101265.28;;;5.31;100.00
32109;BME280;18624;50.042;8.436;2022-12-01T01:41:21;101226.56;;;5.12;100.00
32109;BME280;18624;50.042;8.436;2022-12-01T01:43:51;101271.56;;;5.39;100.00
32109;BME280;18624;50.042;8.436;2022-12-01T01:46:21;101234.28;;;5.06;100.00
32109;BME280;18624;50.042;8.436;2022-12-01T01:48:57;101274.28;;;5.39;100.00
32109;BME280;18624;50.042;8.436;2022-12-01T01:51:35;101269.28;;;5.45;100.00
32109;BME280;18624;50.042;8.436;2022-12-01T01:54:07;101277.47;;;5.48;100.00
32109;BME280;18624;50.042;8.436;2022-12-01T01:56:35;101266.94;;;5.43;100.00
32109;BME280;18624;50.042;8.436;2022-12-01T01:59:03;101270.38;;;5.40;100.00
32109;BME280;18624;50.042;8.436;2022-12-01T02:01:30;101278.97;;;5.42;100.00
32109;BME280;18624;50.042;8.436;2022-12-01T02:03:57;101273.16;;;5.44;100.00
32109;BME280;18624;50.042;8.436;2022-12-01T02:06:23;101270.91;;;5.49;100.00
32109;BME280;18624;50.042;8.436;2022-12-01T02:08:50;101271.69;;;5.50;100.00
32109;BME280;18624;50.042;8.436;2022-12-01T02:11:29;101273.69;;;5.56;100.00
32109;BME280;18624;50.042;8.436;2022-12-01T02:14:08;101272.91;;;5.56;100.00
32109;BME280;18624;50.042;8.436;2022-12-01T02:16:43;101267.84;;;5.54;100.00
32109;BME280;18624;50.042;8.436;2022-12-01T02:22:25;101263.06;;;5.44;100.00
32109;BME280;18624;50.042;8.436;2022-12-01T02:25:33;101274.81;;;5.52;100.00
32109;BME280;18624;50.042;8.436;2022-12-01T02:30:55;101277.94;;;5.54;100.00
32109;BME280;18624;50.042;8.436;2022-12-01T02:33:34;101263.19;;;5.55;100.00
32109;BME280;18624;50.042;8.436;2022-12-01T02:36:13;101224.81;;;5.26;100.00
32109;BME280;18624;50.042;8.436;2022-12-01T02:38:49;101224.34;;;5.21;100.00
32109;BME280;18624;50.042;8.436;2022-12-01T02:41:23;101220.06;;;5.20;100.00
32109;BME280;18624;50.042;8.436;2022-12-01T02:44:02;101262.75;;;5.49;100.00
32109;BME280;18624;50.042;8.436;2022-12-01T02:46:40;101273.25;;;5.51;100.00
32109;BME280;18624;50.042;8.436;2022-12-01T02:49:15;101271.72;;;5.53;100.00
32109;BME280;18624;50.042;8.436;2022-12-01T02:51:43;101272.19;;;5.59;100.00
32109;BME280;18624;50.042;8.436;2022-12-01T02:54:11;101267.91;;;5.62;100.00
32109;BME280;18624;50.042;8.436;2022-12-01T02:56:39;101277.63;;;5.63;100.00
32109;BME280;18624;50.042;8.436;2022-12-01T02:59:13;101278.06;;;5.65;100.00
32109;BME280;18624;50.042;8.436;2022-12-01T03:07:21;101270.72;;;5.69;100.00
32109;BME280;18624;50.042;8.436;2022-12-01T03:10:10;101276.94;;;5.69;100.00
32109;BME280;18624;50.042;8.436;2022-12-01T03:12:43;101275.38;;;5.68;100.00
32109;BME280;18624;50.042;8.436;2022-12-01T03:18:35;101269.19;;;5.71;100.00
32109;BME280;18624;50.042;8.436;2022-12-01T03:23:43;101252.47;;;5.69;100.00
32109;BME280;18624;50.042;8.436;2022-12-01T03:26:15;101250.41;;;5.59;100.00
32109;BME280;18624;50.042;8.436;2022-12-01T03:28:49;101266.41;;;5.64;100.00
32109;BME280;18624;50.042;8.436;2022-12-01T03:31:20;101210.81;;;5.24;100.00
32109;BME280;18624;50.042;8.436;2022-12-01T03:33:53;101262.41;;;5.54;100.00
32109;BME280;18624;50.042;8.436;2022-12-01T03:36:28;101262.41;;;5.54;100.00
32109;BME280;18624;50.042;8.436;2022-12-01T03:38:59;101269.75;;;5.50;100.00
32109;BME280;18624;50.042;8.436;2022-12-01T03:41:33;101256.00;;;5.40;100.00
32109;BME280;18624;50.042;8.436;2022-12-01T03:44:15;101259.59;;;5.47;100.00
32109;BME280;18624;50.042;8.436;2022-12-01T03:49:17;101260.03;;;5.49;100.00
32109;BME280;18624;50.042;8.436;2022-12-01T03:51:54;101260.03;;;5.49;100.00
32109;BME280;18624;50.042;8.436;2022-12-01T03:57:08;101263.09;;;5.48;100.00
32109;BME280;18624;50.042;8.436;2022-12-01T03:59:37;101172.31;;;4.85;100.00
32109;BME280;18624;50.042;8.436;2022-12-01T04:02:06;101273.09;;;5.40;100.00
32109;BME280;18624;50.042;8.436;2022-12-01T04:04:33;101271.47;;;5.32;100.00
32109;BME280;18624;50.042;8.436;2022-12-01T04:06:59;101269.16;;;5.34;100.00
32109;BME280;18624;50.042;8.436;2022-12-01T04:09:26;101269.59;;;5.36;100.00
32109;BME280;18624;50.042;8.436;2022-12-01T04:11:52;101272.25;;;5.32;100.00
32109;BME280;18624;50.042;8.436;2022-12-01T04:14:37;101271.44;;;5.28;100.00
32109;BME280;18624;50.042;8.436;2022-12-01T04:17:04;101276.16;;;5.31;100.00
32109;BME280;18624;50.042;8.436;2022-12-01T04:19:30;101271.38;;;5.25;100.00
32109;BME280;18624;50.042;8.436;2022-12-01T04:21:57;101277.56;;;5.22;100.00
32109;BME280;18624;50.042;8.436;2022-12-01T04:24:23;101276.00;;;5.21;100.00
32109;BME280;18624;50.042;8.436;2022-12-01T04:26:50;101247.03;;;5.02;100.00
32109;BME280;18624;50.042;8.436;2022-12-01T04:29:16;101274.94;;;5.29;100.00
32109;BME280;18624;50.042;8.436;2022-12-01T04:31:42;101282.75;;;5.34;100.00
32109;BME280;18624;50.042;8.436;2022-12-01T04:34:09;101274.22;;;5.32;100.00
32109;BME280;18624;50.042;8.436;2022-12-01T04:36:36;101276.91;;;5.32;100.00
32109;BME280;18624;50.042;8.436;2022-12-01T04:39:02;101279.63;;;5.32;100.00
32109;BME280;18624;50.042;8.436;2022-12-01T04:41:29;101289.03;;;5.38;100.00
32109;BME280;18624;50.042;8.436;2022-12-01T04:43:56;101278.88;;;5.35;100.00
32109;BME280;18624;50.042;8.436;2022-12-01T04:46:23;101297.47;;;5.29;100.00
32109;BME280;18624;50.042;8.436;2022-12-01T04:48:49;101280.00;;;5.30;100.00
32109;BME280;18624;50.042;8.436;2022-12-01T04:51:16;101275.25;;;5.24;100.00
32109;BME280;18624;50.042;8.436;2022-12-01T04:53:42;101286.88;;;5.21;100.00
32109;BME280;18624;50.042;8.436;2022-12-01T04:56:09;101272.03;;;5.15;100.00
32109;BME280;18624;50.042;8.436;2022-12-01T04:58:36;101283.28;;;5.13;100.00
32109;BME280;18624;50.042;8.436;2022-12-01T05:01:09;101282.47;;;5.09;100.00
32109;BME280;18624;50.042;8.436;2022-12-01T05:03:41;101281.59;;;5.01;100.00
32109;BME280;18624;50.042;8.436;2022-12-01T05:06:19;101282.31;;;4.98;100.00
32109;BME280;18624;50.042;8.436;2022-12-01T05:08:47;101282.31;;;4.98;100.00
32109;BME280;18624;50.042;8.436;2022-12-01T05:11:14;101277.19;;;4.93;100.00
32109;BME280;18624;50.042;8.436;2022-12-01T05:13:43;101287.75;;;4.98;100.00
32109;BME280;18624;50.042;8.436;2022-12-01T05:16:15;101284.25;;;4.98;100.00
32109;BME280;18624;50.042;8.436;2022-12-01T05:18:42;101267.81;;;4.87;100.00
32109;BME280;18624;50.042;8.436;2022-12-01T05:21:09;101280.31;;;4.95;100.00
32109;BME280;18624;50.042;8.436;2022-12-01T05:23:37;101275.69;;;4.96;100.00
32109;BME280;18624;50.042;8.436;2022-12-01T05:26:06;101279.50;;;4.91;100.00
32109;BME280;18624;50.042;8.436;2022-12-01T05:28:33;101274.81;;;4.88;100.00
32109;BME280;18624;50.042;8.436;2022-12-01T05:31:00;101283.34;;;4.90;100.00
32109;BME280;18624;50.042;8.436;2022-12-01T05:33:27;101276.78;;;4.91;100.00
32109;BME280;18624;50.042;8.436;2022-12-01T05:35:54;101288.13;;;4.97;100.00
32109;BME280;18624;50.042;8.436;2022-12-01T05:38:21;101259.66;;;4.87;100.00
32109;BME280;18624;50.042;8.436;2022-12-01T05:40:52;101286.19;;;4.97;100.00
32109;BME280;18624;50.042;8.436;2022-12-01T05:43:20;101295.94;;;5.02;100.00
32109;BME280;18624;50.042;8.436;2022-12-01T05:45:55;101284.34;;;5.05;100.00
32109;BME280;18624;50.042;8.436;2022-12-01T05:48:22;101290.63;;;5.09;100.00
32109;BME280;18624;50.042;8.436;2022-12-01T05:50:48;101282.88;;;5.11;100.00
32109;BME280;18624;50.042;8.436;2022-12-01T05:53:15;101292.69;;;5.19;100.00
32109;BME280;18624;50.042;8.436;2022-12-01T05:55:42;101295.03;;;5.21;100.00
32109;BME280;18624;50.042;8.436;2022-12-01T05:58:09;101297.38;;;5.22;100.00
32109;BME280;18624;50.042;8.436;2022-12-01T06:00:36;101293.91;;;5.25;100.00
32109;BME280;18624;50.042;8.436;2022-12-01T06:03:11;101300.91;;;5.26;100.00
32109;BME280;18624;50.042;8.436;2022-12-01T06:05:37;101302.13;;;5.29;100.00
32109;BME280;18624;50.042;8.436;2022-12-01T06:08:04;101255.09;;;4.95;100.00
32109;BME280;18624;50.042;8.436;2022-12-01T06:10:31;101315.97;;;5.20;100.00
32109;BME280;18624;50.042;8.436;2022-12-01T06:12:57;101303.13;;;5.17;100.00
32109;BME280;18624;50.042;8.436;2022-12-01T06:15:25;101303.56;;;5.19;100.00
32109;BME280;18624;50.042;8.436;2022-12-01T06:17:51;101307.06;;;5.20;100.00
32109;BME280;18624;50.042;8.436;2022-12-01T06:20:18;101300.09;;;5.22;100.00
32109;BME280;18624;50.042;8.436;2022-12-01T06:22:45;101308.25;;;5.22;100.00
32109;BME280;18624;50.042;8.436;2022-12-01T06:25:11;101303.59;;;5.23;100.00
32109;BME280;18624;50.042;8.436;2022-12-01T06:27:38;101301.25;;;5.21;100.00
32109;BME280;18624;50.042;8.436;2022-12-01T06:30:05;101302.81;;;5.22;100.00
32109;BME280;18624;50.042;8.436;2022-12-01T06:32:31;101312.16;;;5.25;100.00
32109;BME280;18624;50.042;8.436;2022-12-01T06:34:58;101317.22;;;5.26;100.00
32109;BME280;18624;50.042;8.436;2022-12-01T06:37:26;101314.94;;;5.28;100.00
32109;BME280;18624;50.042;8.436;2022-12-01T06:39:52;101313.00;;;5.29;100.00
32109;BME280;18624;50.042;8.436;2022-12-01T06:42:18;101305.63;;;5.29;100.00
32109;BME280;18624;50.042;8.436;2022-12-01T06:44:45;101313.31;;;5.24;100.00
32109;BME280;18624;50.042;8.436;2022-12-01T06:47:11;101315.59;;;5.22;100.00
32109;BME280;18624;50.042;8.436;2022-12-01T06:49:38;101327.63;;;5.21;100.00
32109;BME280;18624;50.042;8.436;2022-12-01T06:52:05;101322.56;;;5.19;100.00
32109;BME280;18624;50.042;8.436;2022-12-01T06:54:31;101325.25;;;5.16;100.00
32109;BME280;18624;50.042;8.436;2022-12-01T06:56:58;101323.22;;;5.09;100.00
32109;BME280;18624;50.042;8.436;2022-12-01T06:59:25;101330.16;;;5.06;100.00
32109;BME280;18624;50.042;8.436;2022-12-01T07:01:51;101326.25;;;5.04;100.00
32109;BME280;18624;50.042;8.436;2022-12-01T07:04:18;101330.91;;;5.03;100.00
32109;BME280;18624;50.042;8.436;2022-12-01T07:06:45;101326.22;;;5.00;100.00
32109;BME280;18624;50.042;8.436;2022-12-01T07:09:11;101336.91;;;4.90;100.00
32109;BME280;18624;50.042;8.436;2022-12-01T07:11:38;101334.94;;;4.87;100.00
32109;BME280;18624;50.042;8.436;2022-12-01T07:14:04;101328.69;;;4.82;100.00
32109;BME280;18624;50.042;8.436;2022-12-01T07:16:31;101347.63;;;4.79;100.00
32109;BME280;18624;50.042;8.436;2022-12-01T07:18:57;101349.56;;;4.78;100.00
32109;BME280;18624;50.042;8.436;2022-12-01T07:21:25;101349.91;;;4.77;100.00
32109;BME280;18624;50.042;8.436;2022-12-01T07:23:53;101348.28;;;4.72;100.00
32109;BME280;18624;50.042;8.436;2022-12-01T07:26:19;101357.91;;;4.66;100.00
32109;BME280;18624;50.042;8.436;2022-12-01T07:28:46;101359.38;;;4.60;100.00
32109;BME280;18624;50.042;8.436;2022-12-01T07:31:17;101367.44;;;4.56;100.00
32109;BME280;18624;50.042;8.436;2022-12-01T07:33:44;101371.63;;;4.50;100.00
32109;BME280;18624;50.042;8.436;2022-12-01T07:36:12;101379.03;;;4.53;100.00
32109;BME280;18624;50.042;8.436;2022-12-01T07:38:39;101369.56;;;4.44;100.00
32109;BME280;18624;50.042;8.436;2022-12-01T07:41:11;101374.22;;;4.43;100.00
32109;BME280;18624;50.042;8.436;2022-12-01T07:43:38;101376.94;;;4.43;100.00
32109;BME280;18624;50.042;8.436;2022-12-01T07:46:10;101377.72;;;4.44;100.00
32109;BME280;18624;50.042;8.436;2022-12-01T07:48:44;101373.44;;;4.43;100.00
32109;BME280;18624;50.042;8.436;2022-12-01T07:51:13;101384.69;;;4.45;100.00
32109;BME280;18624;50.042;8.436;2022-12-01T07:53:46;101382.03;;;4.48;100.00
32109;BME280;18624;50.042;8.436;2022-12-01T07:56:16;101383.31;;;4.54;100.00
32109;BME280;18624;50.042;8.436;2022-12-01T07:58:43;101386.16;;;4.62;100.00
32109;BME280;18624;50.042;8.436;2022-12-01T08:01:12;101386.22;;;4.65;100.00
32109;BME280;18624;50.042;8.436;2022-12-01T08:03:40;101382.66;;;4.61;100.00
32109;BME280;18624;50.042;8.436;2022-12-01T08:06:08;101381.03;;;4.56;100.00
32109;BME280;18624;50.042;8.436;2022-12-01T08:08:36;101389.16;;;4.56;100.00
32109;BME280;18624;50.042;8.436;2022-12-01T08:11:09;101392.25;;;4.55;100.00
32109;BME280;18624;50.042;8.436;2022-12-01T08:13:37;101387.63;;;4.55;100.00
32109;BME280;18624;50.042;8.436;2022-12-01T08:16:05;101393.03;;;4.55;100.00
32109;BME280;18624;50.042;8.436;2022-12-01T08:18:36;101384.34;;;4.46;100.00
32109;BME280;18624;50.042;8.436;2022-12-01T08:21:05;101393.75;;;4.52;100.00
32109;BME280;18624;50.042;8.436;2022-12-01T08:23:32;101361.88;;;4.26;100.00
32109;BME280;18624;50.042;8.436;2022-12-01T08:26:05;101410.75;;;4.49;100.00
32109;BME280;18624;50.042;8.436;2022-12-01T08:28:34;101400.09;;;4.37;100.00
32109;BME280;18624;50.042;8.436;2022-12-01T08:31:23;101402.81;;;4.37;100.00
32109;BME280;18624;50.042;8.436;2022-12-01T08:33:51;101403.53;;;4.34;100.00
32109;BME280;18624;50.042;8.436;2022-12-01T08:36:19;101414.16;;;4.43;100.00
32109;BME280;18624;50.042;8.436;2022-12-01T08:38:49;101410.41;;;4.51;100.00
32109;BME280;18624;50.042;8.436;2022-12-01T08:41:16;101410.34;;;4.47;100.00
32109;BME280;18624;50.042;8.436;2022-12-01T08:43:43;101388.81;;;4.35;100.00
32109;BME280;18624;50.042;8.436;2022-12-01T08:46:30;101410.34;;;4.47;100.00
32109;BME280;18624;50.042;8.436;2022-12-01T08:48:57;101407.50;;;4.40;100.00
32109;BME280;18624;50.042;8.436;2022-12-01T08:51:24;101414.63;;;4.48;100.00
32109;BME280;18624;50.042;8.436;2022-12-01T08:53:51;101409.97;;;4.49;100.00
32109;BME280;18624;50.042;8.436;2022-12-01T08:58:49;101410.34;;;4.47;100.00
32109;BME280;18624;50.042;8.436;2022-12-01T09:01:17;101407.56;;;4.44;100.00
32109;BME280;18624;50.042;8.436;2022-12-01T09:03:44;101413.06;;;4.47;100.00
32109;BME280;18624;50.042;8.436;2022-12-01T09:06:17;101415.00;;;4.47;100.00
32109;BME280;18624;50.042;8.436;2022-12-01T09:08:47;101404.47;;;4.45;100.00
32109;BME280;18624;50.042;8.436;2022-12-01T09:11:16;101411.97;;;4.52;100.00
32109;BME280;18624;50.042;8.436;2022-12-01T09:13:43;101408.47;;;4.51;100.00
32109;BME280;18624;50.042;8.436;2022-12-01T09:16:18;101414.75;;;4.55;100.00
32109;BME280;18624;50.042;8.436;2022-12-01T09:18:45;101410.13;;;4.56;100.00
32109;BME280;18624;50.042;8.436;2022-12-01T09:21:15;101414.38;;;4.57;100.00
32109;BME280;18624;50.042;8.436;2022-12-01T09:23:42;101417.09;;;4.57;100.00
32109;BME280;18624;50.042;8.436;2022-12-01T09:26:09;101415.59;;;4.60;100.00
32109;BME280;18624;50.042;8.436;2022-12-01T09:28:39;101376.38;;;4.34;100.00
32109;BME280;18624;50.042;8.436;2022-12-01T09:31:07;101424.09;;;4.58;100.00
32109;BME280;18624;50.042;8.436;2022-12-01T09:33:34;101414.47;;;4.61;100.00
32109;BME280;18624;50.042;8.436;2022-12-01T09:36:03;101410.53;;;4.58;100.00
32109;BME280;18624;50.042;8.436;2022-12-01T09:38:31;101413.31;;;4.62;100.00
32109;BME280;18624;50.042;8.436;2022-12-01T09:41:00;101398.41;;;4.52;100.00
32109;BME280;18624;50.042;8.436;2022-12-01T09:43:30;101398.88;;;4.57;100.00
32109;BME280;18624;50.042;8.436;2022-12-01T09:46:03;101395.38;;;4.57;100.00
32109;BME280;18624;50.042;8.436;2022-12-01T09:48:35;101357.25;;;4.27;100.00
32109;BME280;18624;50.042;8.436;2022-12-01T09:51:12;101393.03;;;4.55;100.00
32109;BME280;18624;50.042;8.436;2022-12-01T09:53:40;101392.28;;;4.58;100.00
32109;BME280;18624;50.042;8.436;2022-12-01T09:56:18;101388.09;;;4.61;100.00
32109;BME280;18624;50.042;8.436;2022-12-01T09:58:46;101386.88;;;4.58;100.00
32109;BME280;18624;50.042;8.436;2022-12-01T10:01:17;101380.72;;;4.62;100.00
32109;BME280;18624;50.042;8.436;2022-12-01T10:03:54;101377.28;;;4.65;100.00
32109;BME280;18624;50.042;8.436;2022-12-01T10:06:34;101385.91;;;4.70;100.00
32109;BME280;18624;50.042;8.436;2022-12-01T10:09:14;101381.69;;;4.73;100.00
32109;BME280;18624;50.042;8.436;2022-12-01T10:11:43;101380.16;;;4.75;100.00
32109;BME280;18624;50.042;8.436;2022-12-01T10:14:16;101373.22;;;4.78;100.00
32109;BME280;18624;50.042;8.436;2022-12-01T10:17:20;101371.63;;;4.77;100.00
32109;BME280;18624;50.042;8.436;2022-12-01T10:22:25;101366.53;;;4.72;100.00
32109;BME280;18624;50.042;8.436;2022-12-01T10:30:23;101360.53;;;4.86;100.00
32109;BME280;18624;50.042;8.436;2022-12-01T10:35:20;101210.63;;;3.97;100.00
32109;BME280;18624;50.042;8.436;2022-12-01T10:37:58;101348.63;;;4.94;100.00
32109;BME280;18624;50.042;8.436;2022-12-01T10:40:27;101344.81;;;4.98;100.00
32109;BME280;18624;50.042;8.436;2022-12-01T10:42:54;101307.25;;;4.77;100.00
32109;BME280;18624;50.042;8.436;2022-12-01T10:45:27;101342.09;;;4.98;100.00
32109;BME280;18624;50.042;8.436;2022-12-01T10:48:15;101348.78;;;5.04;100.00
32109;BME280;18624;50.042;8.436;2022-12-01T10:50:53;101339.81;;;5.04;100.00
32109;BME280;18624;50.042;8.436;2022-12-01T10:53:27;101343.75;;;5.06;100.00
32109;BME280;18624;50.042;8.436;2022-12-01T10:56:14;101345.75;;;5.10;100.00
32109;BME280;18624;50.042;8.436;2022-12-01T10:58:56;101330.16;;;5.06;100.00
32109;BME280;18624;50.042;8.436;2022-12-01T11:01:25;101335.59;;;5.06;100.00
32109;BME280;18624;50.042;8.436;2022-12-01T11:04:06;101343.38;;;5.08;100.00
32109;BME280;18624;50.042;8.436;2022-12-01T11:06:33;101323.22;;;5.09;100.00
32109;BME280;18624;50.042;8.436;2022-12-01T11:09:03;101273.84;;;4.77;100.00
32109;BME280;18624;50.042;8.436;2022-12-01T11:11:36;101329.78;;;5.04;100.00
32109;BME280;18624;50.042;8.436;2022-12-01T11:14:06;101325.94;;;5.09;100.00
32109;BME280;18624;50.042;8.436;2022-12-01T11:16:44;101328.28;;;5.11;100.00
32109;BME280;18624;50.042;8.436;2022-12-01T11:19:30;101327.13;;;5.12;100.00
32109;BME280;18624;50.042;8.436;2022-12-01T11:22:16;101322.47;;;5.12;100.00
32109;BME280;18624;50.042;8.436;2022-12-01T11:24:55;101321.63;;;5.04;100.00
32109;BME280;18624;50.042;8.436;2022-12-01T11:27:24;101327.00;;;5.01;100.00
32109;BME280;18624;50.042;8.436;2022-12-01T11:29:59;101321.19;;;5.02;100.00
32109;BME280;18624;50.042;8.436;2022-12-01T11:32:29;101325.50;;;5.07;100.00
32109;BME280;18624;50.042;8.436;2022-12-01T11:35:02;101315.63;;;4.95;100.00
32109;BME280;18624;50.042;8.436;2022-12-01T11:37:37;101310.69;;;5.01;100.00
32109;BME280;18624;50.042;8.436;2022-12-01T11:40:07;101166.69;;;4.14;100.00
32109;BME280;18624;50.042;8.436;2022-12-01T11:42:34;101310.00;;;5.07;100.00
32109;BME280;18624;50.042;8.436;2022-12-01T11:45:08;101307.31;;;5.11;100.00
32109;BME280;18624;50.042;8.436;2022-12-01T11:50:35;101303.50;;;5.16;100.00
32109;BME280;18624;50.042;8.436;2022-12-01T11:53:03;101308.22;;;5.19;100.00
32109;BME280;18624;50.042;8.436;2022-12-01T11:55:30;101300.84;;;5.19;100.00
32109;BME280;18624;50.042;8.436;2022-12-01T11:58:00;101305.53;;;5.22;100.00
32109;BME280;18624;50.042;8.436;2022-12-01T12:00:46;101293.41;;;5.16;100.00
32109;BME280;18624;50.042;8.436;2022-12-01T12:03:32;101297.34;;;5.19;100.00
32109;BME280;18624;50.042;8.436;2022-12-01T12:06:22;101298.91;;;5.20;100.00
32109;BME280;18624;50.042;8.436;2022-12-01T12:09:22;101303.13;;;5.17;100.00
32109;BME280;18624;50.042;8.436;2022-12-01T12:12:11;101250.63;;;4.79;100.00
32109;BME280;18624;50.042;8.436;2022-12-01T12:17:39;101290.91;;;5.04;100.00
32109;BME280;18624;50.042;8.436;2022-12-01T12:26:05;101290.19;;;5.07;100.00
32109;BME280;18624;50.042;8.436;2022-12-01T12:31:38;101284.94;;;5.21;100.00
32109;BME280;18624;50.042;8.436;2022-12-01T12:34:31;101279.16;;;5.23;100.00
32109;BME280;18624;50.042;8.436;2022-12-01T12:37:09;101263.63;;;5.23;100.00
32109;BME280;18624;50.042;8.436;2022-12-01T12:46:15;101261.63;;;5.20;100.00
32109;BME280;18624;50.042;8.436;2022-12-01T12:50:58;101260.47;;;5.21;100.00
32109;BME280;18624;50.042;8.436;2022-12-01T12:53:39;101257.78;;;5.25;100.00
32109;BME280;18624;50.042;8.436;2022-12-01T12:56:13;101256.63;;;5.26;100.00
32109;BME280;18624;50.042;8.436;2022-12-01T12:58:50;101250.38;;;5.22;100.00
32109;BME280;18624;50.042;8.436;2022-12-01T13:01:24;101215.91;;;4.96;100.00
32109;BME280;18624;50.042;8.436;2022-12-01T13:04:02;101272.13;;;5.22;100.00
32109;BME280;18624;50.042;8.436;2022-12-01T13:06:38;101274.06;;;5.21;100.00
32109;BME280;18624;50.042;8.436;2022-12-01T13:09:16;101270.50;;;5.17;100.00
32109;BME280;18624;50.042;8.436;2022-12-01T13:11:59;101265.06;;;5.14;100.00
32109;BME280;18624;50.042;8.436;2022-12-01T13:14:31;101265.84;;;5.18;100.00
32109;BME280;18624;50.042;8.436;2022-12-01T13:17:34;101264.34;;;5.20;100.00
32109;BME280;18624;50.042;8.436;2022-12-01T13:20:03;101268.22;;;5.19;100.00
32109;BME280;18624;50.042;8.436;2022-12-01T13:22:34;101259.34;;;5.22;100.00
32109;BME280;18624;50.042;8.436;2022-12-01T13:25:02;101268.16;;;5.16;100.00
32109;BME280;18624;50.042;8.436;2022-12-01T13:27:32;101275.03;;;5.06;100.00
32109;BME280;18624;50.042;8.436;2022-12-01T13:30:01;101255.63;;;5.07;100.00
32109;BME280;18624;50.042;8.436;2022-12-01T13:32:36;101248.75;;;5.14;100.00
32109;BME280;18624;50.042;8.436;2022-12-01T13:35:16;101251.47;;;5.17;100.00
32109;BME280;18624;50.042;8.436;2022-12-01T13:37:46;101247.22;;;5.16;100.00
32109;BME280;18624;50.042;8.436;2022-12-01T13:40:21;101239.75;;;5.10;100.00
32109;BME280;18624;50.042;8.436;2022-12-01T13:43:04;101239.34;;;5.07;100.00
32109;BME280;18624;50.042;8.436;2022-12-01T13:45:51;101235.47;;;5.08;100.00
32109;BME280;18624;50.042;8.436;2022-12-01T13:51:03;101244.09;;;5.14;100.00
32109;BME280;18624;50.042;8.436;2022-12-01T13:53:37;101239.38;;;5.11;100.00
32109;BME280;18624;50.042;8.436;2022-12-01T13:58:48;101236.34;;;5.16;100.00
32109;BME280;18624;50.042;8.436;2022-12-01T14:03:58;101244.88;;;5.15;100.00
32109;BME280;18624;50.042;8.436;2022-12-01T14:08:57;101239.00;;;5.13;100.00
32109;BME280;18624;50.042;8.436;2022-12-01T14:11:26;101248.00;;;5.17;100.00
32109;BME280;18624;50.042;8.436;2022-12-01T14:14:00;101206.88;;;4.88;100.00
32109;BME280;18624;50.042;8.436;2022-12-01T14:16:48;101236.75;;;5.18;100.00
32109;BME280;18624;50.042;8.436;2022-12-01T14:21:59;101235.50;;;5.12;100.00
32109;BME280;18624;50.042;8.436;2022-12-01T14:24:36;101237.94;;;5.21;100.00